createdAt,value
2018-08-23T00:01:35.724Z,18.27
2018-08-23T00:04:08.148Z,19.03
2018-08-23T00:06:41.652Z,18.27
2018-08-23T00:09:12.329Z,17.00
2018-08-23T00:11:46.578Z,18.00
2018-08-23T00:14:17.852Z,16.50
2018-08-23T00:16:48.869Z,17.10
2018-08-23T00:19:19.518Z,18.50
2018-08-23T00:21:51.321Z,16.63
2018-08-23T00:24:23.293Z,20.47
2018-08-23T00:27:30.165Z,19.50
2018-08-23T00:30:00.852Z,20.03
2018-08-23T00:32:31.526Z,18.97
2018-08-23T00:35:02.240Z,19.77
2018-08-23T00:37:32.983Z,20.03
2018-08-23T00:40:07.661Z,20.90
2018-08-23T00:42:38.429Z,22.87
2018-08-23T00:45:18.001Z,25.13
2018-08-23T00:47:48.706Z,26.20
2018-08-23T00:51:05.247Z,26.30
2018-08-23T00:53:37.121Z,26.87
2018-08-23T00:56:18.484Z,25.70
2018-08-23T00:58:54.307Z,26.60
2018-08-23T01:01:25.006Z,25.43
2018-08-23T01:03:55.646Z,25.07
2018-08-23T01:06:46.141Z,28.27
2018-08-23T01:09:16.716Z,27.10
2018-08-23T01:11:47.428Z,28.60
2018-08-23T01:14:18.039Z,28.10
2018-08-23T01:17:07.841Z,28.73
2018-08-23T01:19:43.729Z,32.63
2018-08-23T01:22:14.362Z,28.63
2018-08-23T01:24:47.807Z,31.67
2018-08-23T01:27:52.638Z,30.50
2018-08-23T01:30:24.500Z,31.50
2018-08-23T01:32:55.232Z,32.80
2018-08-23T01:35:26.372Z,32.40
2018-08-23T01:37:57.062Z,31.13
2018-08-23T01:40:27.759Z,32.90
2018-08-23T01:42:58.471Z,29.97
2018-08-23T01:45:29.171Z,29.33
2018-08-23T01:48:00.843Z,31.77
2018-08-23T01:50:31.507Z,30.37
2018-08-23T01:53:02.232Z,30.47
2018-08-23T01:55:32.937Z,31.10
2018-08-23T01:58:03.616Z,29.77
2018-08-23T02:00:35.667Z,31.87
2018-08-23T02:03:06.525Z,31.30
2018-08-23T02:05:38.938Z,31.60
2018-08-23T02:08:09.622Z,32.27
2018-08-23T02:10:40.276Z,30.43
2018-08-23T02:13:16.288Z,31.10
2018-08-23T02:15:50.988Z,31.07
2018-08-23T02:18:21.664Z,30.60
2018-08-23T02:20:56.376Z,32.00
2018-08-23T02:23:27.078Z,33.03
2018-08-23T02:25:57.780Z,33.53
2018-08-23T02:28:28.468Z,31.53
2018-08-23T02:30:59.111Z,33.10
2018-08-23T02:33:29.754Z,31.50
2018-08-23T02:36:20.664Z,30.93
2018-08-23T02:38:59.941Z,31.80
2018-08-23T02:41:30.960Z,32.47
2018-08-23T02:44:01.681Z,33.10
2018-08-23T02:46:33.784Z,32.40
2018-08-23T02:49:04.458Z,33.03
2018-08-23T02:51:42.609Z,33.70
2018-08-23T02:54:14.442Z,31.60
2018-08-23T02:56:50.249Z,33.60
2018-08-23T02:59:20.939Z,34.17
2018-08-23T03:01:51.935Z,32.73
2018-08-23T03:04:24.609Z,32.87
2018-08-23T03:07:06.342Z,33.63
2018-08-23T03:09:38.938Z,32.43
2018-08-23T03:12:11.966Z,34.37
2018-08-23T03:14:42.625Z,32.97
2018-08-23T03:17:20.693Z,33.17
2018-08-23T03:20:18.806Z,32.50
2018-08-23T03:22:53.735Z,31.23
2018-08-23T03:25:25.572Z,33.03
2018-08-23T03:27:56.566Z,32.60
2018-08-23T03:30:27.249Z,32.53
2018-08-23T03:32:57.936Z,33.50
2018-08-23T03:35:28.603Z,32.00
2018-08-23T03:37:59.270Z,34.03
2018-08-23T03:40:29.926Z,33.90
2018-08-23T03:43:00.613Z,32.70
2018-08-23T03:45:31.285Z,33.93
2018-08-23T03:48:01.926Z,33.17
2018-08-23T03:50:38.032Z,33.00
2018-08-23T03:53:08.688Z,34.80
2018-08-23T03:55:39.343Z,34.23
2018-08-23T03:58:10.031Z,35.30
2018-08-23T04:01:05.833Z,33.13
2018-08-23T04:03:38.752Z,34.87
2018-08-23T04:06:32.163Z,34.57
2018-08-23T04:09:02.924Z,33.80
2018-08-23T04:11:33.612Z,32.70
2018-08-23T04:14:04.297Z,31.73
2018-08-23T04:16:35.207Z,34.67
2018-08-23T04:19:05.947Z,32.60
2018-08-23T04:21:36.636Z,32.50
2018-08-23T04:24:07.317Z,32.47
2018-08-23T04:26:37.970Z,32.13
2018-08-23T04:29:08.641Z,31.27
2018-08-23T04:31:39.289Z,33.97
2018-08-23T04:34:09.956Z,32.33
2018-08-23T04:36:40.682Z,32.03
2018-08-23T04:39:12.424Z,32.30
2018-08-23T04:41:43.834Z,31.80
2018-08-23T04:44:16.456Z,32.27
2018-08-23T04:46:47.128Z,32.20
2018-08-23T04:49:17.800Z,34.20
2018-08-23T04:51:48.538Z,34.47
2018-08-23T04:54:19.133Z,33.00
2018-08-23T04:56:49.827Z,33.10
2018-08-23T04:59:20.487Z,32.73
2018-08-23T05:01:51.147Z,31.13
2018-08-23T05:04:21.851Z,33.57
2018-08-23T05:06:52.521Z,33.53
2018-08-23T05:09:23.149Z,33.27
2018-08-23T05:11:54.461Z,36.03
2018-08-23T05:14:25.138Z,36.97
2018-08-23T05:16:55.858Z,37.10
2018-08-23T05:19:26.525Z,39.13
2018-08-23T05:21:57.240Z,36.00
2018-08-23T05:24:27.869Z,37.77
2018-08-23T05:26:58.572Z,37.07
2018-08-23T05:29:29.196Z,38.60
2018-08-23T05:31:59.882Z,37.70
2018-08-23T05:34:30.502Z,39.50
2018-08-23T05:37:01.212Z,36.63
2018-08-23T05:39:49.187Z,38.97
2018-08-23T05:42:38.518Z,36.97
2018-08-23T05:45:09.190Z,37.33
2018-08-23T05:47:39.847Z,38.00
2018-08-23T05:50:10.537Z,38.77
2018-08-23T05:52:41.252Z,37.30
2018-08-23T05:55:11.935Z,36.57
2018-08-23T05:57:42.616Z,36.83
2018-08-23T06:00:13.321Z,36.47
2018-08-23T06:02:44.036Z,35.90
2018-08-23T06:05:14.690Z,35.40
2018-08-23T06:07:45.346Z,36.63
2018-08-23T06:10:16.011Z,35.83
2018-08-23T06:12:46.669Z,34.63
2018-08-23T06:15:17.371Z,35.40
2018-08-23T06:17:48.133Z,35.43
2018-08-23T06:20:18.881Z,35.70
2018-08-23T06:22:49.648Z,33.67
2018-08-23T06:25:20.500Z,34.37
2018-08-23T06:27:51.171Z,34.80
2018-08-23T06:30:21.832Z,33.87
2018-08-23T06:32:56.640Z,34.20
2018-08-23T06:35:34.710Z,33.80
2018-08-23T06:38:05.859Z,33.33
2018-08-23T06:40:36.484Z,32.53
2018-08-23T06:43:07.198Z,32.87
2018-08-23T06:45:37.896Z,31.40
2018-08-23T06:48:08.560Z,32.03
2018-08-23T06:50:43.234Z,33.23
2018-08-23T06:53:13.912Z,32.50
2018-08-23T06:55:44.554Z,32.90
2018-08-23T06:58:16.129Z,34.23
2018-08-23T07:00:46.830Z,32.77
2018-08-23T07:03:17.472Z,33.93
2018-08-23T07:05:48.164Z,38.13
2018-08-23T07:08:18.845Z,37.37
2018-08-23T07:10:49.624Z,34.90
2018-08-23T07:13:20.265Z,36.73
2018-08-23T07:15:56.011Z,33.37
2018-08-23T07:18:26.682Z,37.40
2018-08-23T07:20:57.360Z,36.13
2018-08-23T07:23:36.579Z,36.67
2018-08-23T07:26:14.087Z,34.63
2018-08-23T07:28:44.745Z,36.03
2018-08-23T07:31:15.409Z,36.60
2018-08-23T07:33:50.347Z,37.13
2018-08-23T07:36:29.591Z,35.50
2018-08-23T07:39:00.342Z,35.63
2018-08-23T07:41:31.013Z,34.30
2018-08-23T07:44:01.721Z,34.97
2018-08-23T07:46:32.390Z,36.40
2018-08-23T07:49:03.131Z,34.53
2018-08-23T07:51:33.772Z,33.30
2018-08-23T07:54:08.494Z,32.47
2018-08-23T07:56:39.179Z,31.47
2018-08-23T07:59:09.862Z,29.73
2018-08-23T08:01:40.620Z,29.73
2018-08-23T08:04:11.648Z,28.87
2018-08-23T08:06:42.301Z,25.50
2018-08-23T08:09:13.115Z,25.77
2018-08-23T08:11:51.294Z,25.87
2018-08-23T08:14:27.118Z,24.73
2018-08-23T08:17:07.985Z,23.97
2018-08-23T08:19:41.065Z,24.87
2018-08-23T08:22:11.842Z,23.33
2018-08-23T08:24:42.505Z,22.80
2018-08-23T08:27:13.242Z,22.47
2018-08-23T08:29:43.925Z,22.60
2018-08-23T08:32:14.659Z,21.00
2018-08-23T08:34:45.398Z,22.30
2018-08-23T08:37:16.074Z,24.63
2018-08-23T08:39:46.720Z,23.07
2018-08-23T08:42:18.497Z,22.13
2018-08-23T08:44:49.312Z,20.17
2018-08-23T08:47:19.993Z,20.63
2018-08-23T08:49:50.695Z,20.03
2018-08-23T08:52:21.341Z,20.37
2018-08-23T08:54:51.981Z,19.50
2018-08-23T08:57:25.012Z,19.73
2018-08-23T08:59:55.711Z,19.70
2018-08-23T09:02:26.349Z,16.93
2018-08-23T09:04:57.116Z,15.07
2018-08-23T09:07:31.623Z,15.60
2018-08-23T09:10:02.285Z,14.33
2018-08-23T09:12:33.472Z,14.10
2018-08-23T09:15:04.196Z,15.13
2018-08-23T09:17:41.780Z,13.37
2018-08-23T09:20:13.606Z,14.13
2018-08-23T09:22:49.340Z,15.90
2018-08-23T09:25:28.660Z,13.33
2018-08-23T09:27:59.309Z,12.87
2018-08-23T09:30:31.390Z,12.77
2018-08-23T09:33:08.186Z,13.73
2018-08-23T09:35:39.043Z,15.53
2018-08-23T09:38:13.513Z,17.13
2018-08-23T09:40:44.123Z,15.60
2018-08-23T09:43:14.842Z,13.07
2018-08-23T09:45:45.612Z,12.17
2018-08-23T09:48:16.300Z,12.20
2018-08-23T09:50:47.018Z,12.40
2018-08-23T09:53:23.768Z,13.20
2018-08-23T09:55:56.139Z,10.80
2018-08-23T09:58:31.999Z,9.10
2018-08-23T10:01:07.871Z,9.93
2018-08-23T10:03:43.681Z,10.70
2018-08-23T10:06:28.763Z,10.00
2018-08-23T10:09:20.635Z,12.03
2018-08-23T10:11:56.558Z,11.67
2018-08-23T10:14:32.515Z,12.47
2018-08-23T10:17:08.446Z,13.10
2018-08-23T10:19:44.315Z,12.00
2018-08-23T10:22:38.235Z,13.47
2018-08-23T10:25:46.816Z,13.03
2018-08-23T10:28:18.930Z,12.70
2018-08-23T10:30:49.865Z,12.20
2018-08-23T10:33:20.645Z,11.10
2018-08-23T10:35:57.007Z,11.70
2018-08-23T10:38:28.903Z,11.03
2018-08-23T10:41:04.995Z,10.47
2018-08-23T10:43:41.024Z,12.60
2018-08-23T10:46:11.716Z,12.13
2018-08-23T10:48:42.403Z,12.43
2018-08-23T10:51:13.100Z,12.23
2018-08-23T10:53:43.842Z,11.77
2018-08-23T10:56:14.556Z,10.80
2018-08-23T10:58:45.202Z,10.30
2018-08-23T11:01:18.863Z,8.93
2018-08-23T11:03:49.508Z,10.10
2018-08-23T11:06:20.347Z,8.60
2018-08-23T11:08:56.013Z,9.47
2018-08-23T11:11:31.711Z,7.20
2018-08-23T11:14:07.975Z,8.30
2018-08-23T11:16:43.950Z,7.80
2018-08-23T11:19:19.849Z,8.50
2018-08-23T11:21:50.589Z,7.03
2018-08-23T11:24:21.212Z,6.03
2018-08-23T11:26:52.024Z,9.07
2018-08-23T11:29:23.334Z,6.47
2018-08-23T11:31:54.017Z,6.10
2018-08-23T11:34:24.740Z,6.20
2018-08-23T11:36:55.455Z,5.70
2018-08-23T11:39:26.061Z,5.97
2018-08-23T11:41:56.703Z,6.07
2018-08-23T11:44:27.407Z,6.07
2018-08-23T11:46:58.107Z,6.07
2018-08-23T11:49:28.708Z,6.07
2018-08-23T11:51:59.466Z,5.57
2018-08-23T11:54:30.164Z,6.13
2018-08-23T11:57:00.849Z,4.63
2018-08-23T11:59:31.531Z,4.47
2018-08-23T12:02:02.212Z,4.47
2018-08-23T12:04:32.889Z,3.83
2018-08-23T12:07:03.688Z,4.83
2018-08-23T12:09:34.457Z,5.10
2018-08-23T12:12:05.480Z,4.37
2018-08-23T12:14:36.202Z,5.47
2018-08-23T12:17:06.990Z,3.90
2018-08-23T12:19:37.689Z,3.73
2018-08-23T12:22:08.431Z,4.50
2018-08-23T12:24:39.071Z,4.40
2018-08-23T12:27:09.743Z,4.50
2018-08-23T12:29:40.432Z,3.90
2018-08-23T12:32:11.140Z,4.13
2018-08-23T12:34:41.855Z,4.50
2018-08-23T12:37:17.773Z,4.77
2018-08-23T12:39:53.702Z,4.30
2018-08-23T12:42:29.477Z,4.53
2018-08-23T12:45:00.096Z,3.93
2018-08-23T12:47:30.754Z,5.10
2018-08-23T12:50:04.912Z,4.57
2018-08-23T12:52:35.577Z,3.80
2018-08-23T12:55:06.483Z,4.23
2018-08-23T12:57:37.148Z,4.03
2018-08-23T13:00:07.877Z,3.60
2018-08-23T13:02:38.603Z,3.87
2018-08-23T13:05:09.264Z,3.53
2018-08-23T13:07:40.024Z,3.73
2018-08-23T13:10:10.733Z,3.37
2018-08-23T13:12:41.382Z,3.60
2018-08-23T13:15:12.074Z,4.03
2018-08-23T13:17:42.766Z,4.80
2018-08-23T13:20:13.488Z,4.27
2018-08-23T13:22:44.165Z,5.07
2018-08-23T13:25:15.365Z,4.50
2018-08-23T13:27:46.056Z,3.80
2018-08-23T13:30:16.872Z,4.10
2018-08-23T13:32:47.557Z,5.20
2018-08-23T13:35:18.320Z,5.30
2018-08-23T13:37:48.995Z,5.57
2018-08-23T13:40:21.530Z,7.53
2018-08-23T13:42:52.317Z,5.47
2018-08-23T13:45:22.922Z,5.50
2018-08-23T13:47:53.592Z,6.20
2018-08-23T13:50:24.257Z,5.60
2018-08-23T13:52:54.915Z,5.27
2018-08-23T13:55:25.591Z,5.70
2018-08-23T13:57:56.372Z,5.23
2018-08-23T14:00:32.316Z,6.03
2018-08-23T14:03:02.985Z,5.80
2018-08-23T14:05:33.685Z,4.93
2018-08-23T14:08:04.459Z,4.80
2018-08-23T14:10:35.339Z,4.60
2018-08-23T14:13:06.223Z,4.70
2018-08-23T14:15:42.008Z,4.53
2018-08-23T14:18:12.775Z,4.73
2018-08-23T14:20:43.506Z,5.43
2018-08-23T14:23:14.223Z,5.67
2018-08-23T14:25:44.875Z,5.43
2018-08-23T14:28:15.469Z,5.93
2018-08-23T14:30:46.124Z,5.50
2018-08-23T14:33:16.795Z,5.73
2018-08-23T14:35:47.524Z,4.57
2018-08-23T14:38:19.034Z,6.00
2018-08-23T14:40:49.697Z,4.63
2018-08-23T14:43:20.351Z,5.27
2018-08-23T14:45:51.057Z,4.30
2018-08-23T14:48:21.785Z,4.20
2018-08-23T14:50:52.775Z,4.37
2018-08-23T14:53:27.207Z,4.37
2018-08-23T14:56:02.972Z,4.30
2018-08-23T14:58:33.696Z,4.37
2018-08-23T15:01:04.415Z,4.77
2018-08-23T15:03:35.104Z,4.60
2018-08-23T15:06:05.752Z,4.70
2018-08-23T15:08:36.490Z,4.57
2018-08-23T15:11:07.190Z,4.60
2018-08-23T15:13:37.884Z,4.90
2018-08-23T15:16:08.701Z,5.60
2018-08-23T15:18:39.337Z,6.73
2018-08-23T15:21:10.026Z,5.63
2018-08-23T15:23:40.990Z,5.17
2018-08-23T15:26:11.837Z,5.47
2018-08-23T15:28:42.615Z,5.20
2018-08-23T15:31:13.368Z,5.40
2018-08-23T15:33:44.101Z,4.93
2018-08-23T15:36:14.789Z,7.07
2018-08-23T15:38:45.526Z,7.03
2018-08-23T15:41:16.356Z,6.37
2018-08-23T15:43:47.040Z,7.20
2018-08-23T15:46:17.791Z,6.33
2018-08-23T15:48:48.560Z,7.00
2018-08-23T15:51:19.345Z,6.77
2018-08-23T15:53:50.023Z,8.20
2018-08-23T15:56:20.985Z,8.40
2018-08-23T15:58:51.624Z,8.60
2018-08-23T16:01:22.347Z,8.60
2018-08-23T16:03:52.950Z,7.80
2018-08-23T16:06:23.750Z,8.17
2018-08-23T16:08:54.479Z,7.07
2018-08-23T16:11:26.054Z,9.17
2018-08-23T16:13:56.822Z,7.60
2018-08-23T16:16:32.796Z,8.03
2018-08-23T16:19:08.806Z,7.40
2018-08-23T16:21:40.380Z,8.00
2018-08-23T16:24:12.205Z,7.60
2018-08-23T16:26:48.116Z,7.40
2018-08-23T16:29:18.873Z,7.00
2018-08-23T16:31:49.600Z,5.63
2018-08-23T16:34:20.558Z,6.40
2018-08-23T16:36:51.360Z,5.60
2018-08-23T16:39:22.183Z,6.00
2018-08-23T16:41:52.955Z,5.33
2018-08-23T16:44:23.589Z,6.30
2018-08-23T16:46:54.257Z,6.00
2018-08-23T16:49:24.945Z,5.50
2018-08-23T16:51:55.587Z,5.07
2018-08-23T16:54:26.300Z,5.27
2018-08-23T16:56:56.954Z,5.33
2018-08-23T16:59:27.619Z,6.07
2018-08-23T17:01:58.310Z,6.73
2018-08-23T17:04:34.146Z,6.07
2018-08-23T17:07:04.776Z,6.53
2018-08-23T17:09:35.502Z,6.27
2018-08-23T17:12:06.349Z,6.63
2018-08-23T17:14:37.065Z,5.73
2018-08-23T17:17:12.930Z,7.03
2018-08-23T17:19:43.592Z,6.37
2018-08-23T17:22:14.855Z,6.70
2018-08-23T17:24:45.483Z,7.33
2018-08-23T17:27:16.242Z,8.17
2018-08-23T17:29:46.967Z,7.50
2018-08-23T17:32:17.608Z,8.63
2018-08-23T17:34:48.307Z,7.90
2018-08-23T17:37:18.967Z,9.20
2018-08-23T17:39:49.659Z,8.50
2018-08-23T17:42:20.413Z,8.00
2018-08-23T17:44:51.150Z,7.30
2018-08-23T17:47:21.923Z,7.80
2018-08-23T17:49:52.565Z,6.93
2018-08-23T17:52:23.383Z,7.63
2018-08-23T17:54:54.076Z,7.20
2018-08-23T17:57:24.716Z,6.97
2018-08-23T17:59:55.431Z,8.53
2018-08-23T18:02:26.188Z,8.03
2018-08-23T18:04:57.266Z,8.47
2018-08-23T18:07:28.062Z,8.63
2018-08-23T18:09:58.765Z,8.97
2018-08-23T18:12:29.561Z,8.63
2018-08-23T18:15:00.444Z,8.17
2018-08-23T18:17:31.231Z,7.13
2018-08-23T18:20:02.087Z,7.50
2018-08-23T18:22:33.397Z,7.57
2018-08-23T18:25:04.569Z,7.23
2018-08-23T18:27:35.605Z,6.57
2018-08-23T18:30:06.750Z,7.07
2018-08-23T18:32:37.548Z,6.77
2018-08-23T18:35:08.333Z,6.90
2018-08-23T18:37:39.168Z,7.57
2018-08-23T18:40:09.801Z,7.10
2018-08-23T18:42:40.574Z,6.80
2018-08-23T18:45:11.403Z,6.80
2018-08-23T18:47:42.218Z,6.67
2018-08-23T18:50:13.180Z,6.37
2018-08-23T18:52:43.879Z,6.37
2018-08-23T18:55:14.682Z,6.17
2018-08-23T18:57:45.443Z,6.10
2018-08-23T19:00:17.780Z,5.70
2018-08-23T19:02:48.461Z,6.53
2018-08-23T19:05:19.168Z,5.90
2018-08-23T19:07:49.924Z,6.17
2018-08-23T19:10:20.771Z,5.90
2018-08-23T19:12:51.491Z,6.20
2018-08-23T19:15:27.433Z,5.47
2018-08-23T19:17:58.239Z,5.13
2018-08-23T19:20:29.041Z,5.03
2018-08-23T19:22:59.804Z,5.37
2018-08-23T19:25:30.667Z,5.20
2018-08-23T19:28:01.366Z,5.07
2018-08-23T19:30:32.139Z,4.63
2018-08-23T19:33:03.402Z,4.67
2018-08-23T19:35:33.739Z,5.00
2018-08-23T19:38:04.473Z,5.43
2018-08-23T19:40:35.287Z,5.20
2018-08-23T19:43:06.343Z,4.67
2018-08-23T19:45:42.339Z,5.40
2018-08-23T19:48:13.259Z,5.50
2018-08-23T19:50:43.981Z,5.17
2018-08-23T19:53:14.880Z,5.20
2018-08-23T19:55:45.790Z,4.90
2018-08-23T19:58:16.448Z,5.07
2018-08-23T20:00:47.391Z,5.30
2018-08-23T20:03:18.108Z,5.30
2018-08-23T20:05:48.758Z,4.80
2018-08-23T20:08:19.658Z,5.17
2018-08-23T20:10:50.344Z,4.60
2018-08-23T20:13:21.051Z,5.50
2018-08-23T20:15:51.757Z,5.00
2018-08-23T20:18:22.520Z,5.23
2018-08-23T20:20:53.199Z,4.83
2018-08-23T20:23:23.991Z,5.10
2018-08-23T20:25:54.908Z,4.97
2018-08-23T20:28:25.813Z,5.87
2018-08-23T20:30:56.505Z,4.87
2018-08-23T20:33:27.620Z,4.90
2018-08-23T20:35:58.546Z,4.33
2018-08-23T20:38:29.466Z,4.23
2018-08-23T20:41:00.553Z,3.77
2018-08-23T20:43:31.167Z,4.23
2018-08-23T20:46:01.788Z,4.33
2018-08-23T20:48:32.511Z,3.50
2018-08-23T20:51:03.197Z,3.77
2018-08-23T20:53:33.808Z,3.77
2018-08-23T20:56:04.897Z,3.90
2018-08-23T20:58:35.594Z,4.00
2018-08-23T21:01:06.274Z,4.43
2018-08-23T21:03:36.900Z,3.47
2018-08-23T21:06:07.599Z,2.70
2018-08-23T21:08:38.218Z,3.30
2018-08-23T21:11:08.930Z,3.10
2018-08-23T21:13:39.642Z,2.90
2018-08-23T21:16:10.389Z,2.80
2018-08-23T21:18:41.030Z,2.77
2018-08-23T21:21:11.708Z,2.60
2018-08-23T21:23:42.324Z,2.80
2018-08-23T21:26:12.991Z,3.03
2018-08-23T21:28:43.726Z,2.63
2018-08-23T21:31:14.423Z,2.90
2018-08-23T21:33:45.066Z,2.77
2018-08-23T21:36:15.696Z,2.60
2018-08-23T21:38:46.922Z,2.57
2018-08-23T21:41:17.576Z,2.70
2018-08-23T21:43:48.217Z,2.60
2018-08-23T21:46:18.899Z,2.43
2018-08-23T21:48:49.506Z,2.70
2018-08-23T21:51:20.141Z,2.50
2018-08-23T21:53:50.845Z,2.43
2018-08-23T21:56:21.510Z,2.23
2018-08-23T21:58:52.237Z,2.10
2018-08-23T22:01:22.895Z,2.07
2018-08-23T22:03:53.551Z,2.43
2018-08-23T22:06:24.154Z,2.30
2018-08-23T22:08:54.784Z,2.10
2018-08-23T22:11:25.403Z,2.00
2018-08-23T22:13:56.069Z,2.40
2018-08-23T22:16:27.062Z,2.73
2018-08-23T22:18:57.702Z,2.30
2018-08-23T22:21:28.352Z,2.10
2018-08-23T22:23:59.009Z,2.10
2018-08-23T22:26:29.693Z,2.20
2018-08-23T22:29:00.342Z,2.20
2018-08-23T22:31:31.027Z,2.00
2018-08-23T22:34:01.697Z,2.03
2018-08-23T22:36:32.365Z,1.87
2018-08-23T22:39:03.096Z,1.87
2018-08-23T22:41:33.693Z,2.20
2018-08-23T22:44:04.393Z,1.90
2018-08-23T22:46:35.190Z,2.10
2018-08-23T22:49:05.904Z,1.93
2018-08-23T22:51:36.541Z,1.90
2018-08-23T22:54:07.310Z,1.80
2018-08-23T22:56:37.916Z,1.80
2018-08-23T22:59:08.534Z,1.87
2018-08-23T23:01:39.720Z,1.83
2018-08-23T23:04:15.478Z,2.03
2018-08-23T23:06:46.210Z,1.80
2018-08-23T23:09:16.916Z,1.70
2018-08-23T23:11:50.401Z,1.70
2018-08-23T23:14:21.181Z,1.53
2018-08-23T23:16:55.784Z,1.43
2018-08-23T23:19:26.728Z,1.47
2018-08-23T23:21:57.355Z,1.70
2018-08-23T23:24:33.160Z,1.50
2018-08-23T23:27:03.771Z,1.57
2018-08-23T23:29:34.400Z,1.77
2018-08-23T23:32:05.306Z,1.30
2018-08-23T23:34:35.919Z,1.50
2018-08-23T23:37:07.712Z,1.50
2018-08-23T23:39:38.427Z,1.77
2018-08-23T23:42:40.109Z,1.73
2018-08-23T23:45:10.738Z,1.40
2018-08-23T23:47:41.443Z,1.43
2018-08-23T23:50:12.085Z,1.30
2018-08-23T23:52:42.687Z,1.30
2018-08-23T23:55:13.361Z,1.30
2018-08-23T23:57:43.996Z,1.70
